• Join FlightAware (Why Join?)
  • Login
  • US Flag 
01:34PM EDT


 

Airport Tracker/Info


-or-


 

Live Flight TrackerFlight Track Log ✈ BJS339 ✈ 26-Dec-2013 ✈ KPHX - MMUN / CUN

Flight Track Log - Related Links

Times and Time Zones

All times are in EST time to prevent confusion due to time zone crossing. See the BJS339 flight status page for this flight to view local times or setup timezone preferences in your user account.

Time Position Orientation Groundspeed Altitude Reporting Facility
EST Latitude Longitude Course Direction KTS MPH feet Rate Location/Type
12:28PM 33.4333 -111.9833 90° East 197 227 1,900  Level Phoenix TRACON
12:28PM 33.4333 -111.9500 90° East 197 227 3,300 3,000 Climbing Phoenix TRACON
12:29PM 33.4333 -111.8833 90° East 232 267 6,500 3,600 Climbing Phoenix TRACON
12:30PM 33.4167 -111.8000 103° East 274 315 10,600 3,000 Climbing Phoenix TRACON
12:32PM 33.3783 -111.6950 114° Southeast 293 337 13,600 2,460 Climbing Albuquerque Center
12:33PM 33.3431 -111.5914 112° Southeast 335 386 16,300 2,520 Climbing Albuquerque Center
12:34PM 33.2964 -111.4589 113° Southeast 360 414 18,900 2,280 Climbing Albuquerque Center
12:35PM 33.2608 -111.3372 109° East 385 443 21,100 2,040 Climbing Albuquerque Center
12:36PM 33.2294 -111.2117 107° East 397 457 23,200 1,920 Climbing Albuquerque Center
12:37PM 33.1942 -111.0831 108° East 408 470 25,100 1,500 Climbing Albuquerque Center
12:38PM 33.1603 -110.9472 107° East 424 488 26,400 1,380 Climbing Albuquerque Center
12:39PM 33.1233 -110.8083 108° East 437 503 28,000 1,560 Climbing Albuquerque Center
12:40PM 33.0814 -110.6542 108° East 440 506 29,700 1,500 Climbing Albuquerque Center
12:41PM 33.0442 -110.5161 108° East 439 505 31,100 1,200 Climbing Albuquerque Center
12:42PM 33.0083 -110.3783 107° East 437 503 32,300 1,020 Climbing Albuquerque Center
12:43PM 32.9931 -110.2053 96° East 440 506 33,300 780 Climbing Albuquerque Center
12:44PM 32.9839 -110.0600 94° East 443 510 34,000 1,080 Climbing Albuquerque Center
12:45PM 32.9769 -109.9156 93° East 440 506 35,600 900 Climbing Albuquerque Center
12:46PM 32.9686 -109.7725 94° East 435 501 35,900 420 Climbing Albuquerque Center
12:47PM 32.9617 -109.6269 93° East 440 506 36,500 480 Climbing Albuquerque Center
12:48PM 32.9531 -109.4794 94° East 446 513 37,000 480 Climbing Albuquerque Center
12:49PM 32.9431 -109.3000 94° East 454 522 37,600 720 Climbing Albuquerque Center
12:50PM 32.9239 -109.1550 99° East 444 511 38,600 600 Climbing Albuquerque Center
12:51PM 32.8942 -109.0053 103° East 444 511 38,900 180 Climbing Albuquerque Center
12:52PM 32.8453 -108.8689 113° Southeast 449 517 39,000  Climbing Albuquerque Center
12:53PM 32.7864 -108.7189 115° Southeast 459 528 39,000  Level Albuquerque Center
12:54PM 32.7333 -108.5806 114° Southeast 463 533 39,000  Level Albuquerque Center
12:56PM 32.6789 -108.4411 115° Southeast 466 536 39,000  Level Albuquerque Center
12:57PM 32.6233 -108.3003 115° Southeast 470 541 39,000  Level Albuquerque Center
12:58PM 32.5678 -108.1586 115° Southeast 473 544 39,000  Level Albuquerque Center
12:59PM 32.5014 -107.9889 115° Southeast 475 547 39,000  Level Albuquerque Center
01:00PM 32.4464 -107.8483 115° Southeast 473 544 39,000  Level Albuquerque Center
01:01PM 32.3958 -107.7189 115° Southeast 475 547 39,000  Level Albuquerque Center
01:02PM 32.3294 -107.5519 115° Southeast 474 545 39,000  Level Albuquerque Center
01:03PM 32.2789 -107.4261 115° Southeast 472 543 39,000  Level Albuquerque Center
01:04PM 32.2222 -107.2864 116° Southeast 472 543 39,000  Level Albuquerque Center
01:05PM 32.1644 -107.1369 115° Southeast 473 544 39,000  Level Albuquerque Center
01:06PM 32.0972 -106.9700 115° Southeast 474 545 39,000  Level Albuquerque Center
01:07PM 32.0403 -106.8303 116° Southeast 475 547 39,000  Level Albuquerque Center
01:08PM 31.9831 -106.6894 116° Southeast 478 550 39,000  Level Albuquerque Center
01:09PM 31.9250 -106.5506 116° Southeast 478 550 39,000  Level Albuquerque Center
01:10PM 31.8633 -106.3981 115° Southeast 478 550 39,000  Level Albuquerque Center
01:11PM 31.8097 -106.2581 114° Southeast 473 544 39,000  Level Albuquerque Center
01:12PM 31.7731 -106.1117 106° East 468 539 39,000  Level Albuquerque Center
01:13PM 31.7361 -105.9647 106° East 467 537 39,000  Level Albuquerque Center
01:14PM 31.6906 -105.7889 107° East 469 540 39,000  Level Albuquerque Center
01:15PM 31.6542 -105.6414 106° East 470 541 39,000  Level Albuquerque Center
01:16PM 31.6164 -105.4947 107° East 469 540 39,000  Level Albuquerque Center
01:17PM 31.5794 -105.3436 106° East 468 539 39,000  Level Albuquerque Center
01:18PM 31.5431 -105.2011 107° East 469 540 39,000  Level Albuquerque Center
01:19PM 31.5053 -105.0531 107° East 470 541 39,000  Level Albuquerque Center
01:20PM 31.4678 -104.9078 107° East 468 539 39,000  Level Albuquerque Center
01:21PM 31.4225 -104.7356 107° East 461 531 39,000  Level Albuquerque Center
01:22PM 31.3864 -104.5939 107° East 456 525 39,000  Level Albuquerque Center
01:23PM 31.3497 -104.4514 107° East 455 524 39,000  Level Albuquerque Center
01:24PM 31.3119 -104.3075 107° East 459 528 39,000  Level Albuquerque Center
01:26PM 31.2739 -104.1636 107° East 461 531 39,000  Level Albuquerque Center
01:27PM 31.2347 -104.0183 107° East 466 536 39,000  Level Albuquerque Center
01:28PM 31.1958 -103.8733 107° East 467 537 39,000  Level Albuquerque Center
01:29PM 31.1503 -103.7081 108° East 464 534 39,000  Level Albuquerque Center
01:30PM 31.1103 -103.5639 108° East 468 539 39,000  Level Albuquerque Center
01:31PM 31.0697 -103.4206 108° East 467 537 39,000  Level Albuquerque Center
01:32PM 31.0233 -103.2481 107° East 467 537 39,000  Level Albuquerque Center
01:33PM 30.9678 -103.1178 116° Southeast 452 520 39,000  Level Albuquerque Center
01:34PM 30.8889 -103.0000 128° Southeast 458 527 39,000  Level Albuquerque Center
01:35PM 30.8111 -102.8850 128° Southeast 458 527 39,000  Level Albuquerque Center
01:36PM 30.7328 -102.7661 127° Southeast 461 531 39,000  Level Albuquerque Center
01:37PM 30.6375 -102.6244 128° Southeast 465 535 39,000  Level Albuquerque Center
01:38PM 30.5758 -102.5319 128° Southeast 463 533 39,000  Level Houston Center
01:39PM 30.4964 -102.4144 128° Southeast 464 534 39,000  Level Houston Center
01:40PM 30.4019 -102.2753 128° Southeast 462 532 39,000  Level Houston Center
01:41PM 30.3222 -102.1575 128° Southeast 466 536 39,000  Level Houston Center
01:42PM 30.2419 -102.0400 128° Southeast 467 537 39,000  Level Houston Center
01:43PM 30.1622 -101.9233 128° Southeast 465 535 39,000  Level Houston Center
01:44PM 30.0786 -101.8031 129° Southeast 469 540 39,000  Level Houston Center
01:45PM 29.9978 -101.6861 129° Southeast 469 540 39,000  Level Houston Center
01:46PM 29.8997 -101.5458 129° Southeast 468 539 39,000  Level Houston Center
01:47PM 29.8208 -101.4292 128° Southeast 465 535 39,000  Level Houston Center
01:48PM 29.7397 -101.3131 129° Southeast 466 536 39,000  Level Houston Center
01:49PM 29.6589 -101.1994 129° Southeast 463 533 39,000  Level Houston Center
01:50PM 29.5781 -101.0836 129° Southeast 466 536 39,000  Level Houston Center
01:51PM 29.4811 -100.9447 129° Southeast 468 539 39,000  Level Houston Center
01:52PM 29.4000 -100.8303 129° Southeast 467 537 39,000  Level Houston Center
01:53PM 29.3072 -100.7322 137° Southeast 460 529 39,000  Level Houston Center
01:54PM 29.2039 -100.6575 148° Southeast 444 511 39,000  Level Houston Center
01:55PM 29.1000 -100.5825 148° Southeast 443 510 39,000  Level Houston Center
01:56PM 28.9761 -100.4922 147° Southeast 440 506 39,000  Level Houston Center
01:57PM 28.8747 -100.4161 147° Southeast 438 504 39,000  Level Houston Center
01:59PM 28.7714 -100.3417 148° Southeast 439 505 39,000  Level Houston Center
02:00PM 28.6689 -100.2689 148° Southeast 438 504 39,000  Level Houston Center
02:01PM 28.5536 -100.1842 147° Southeast 442 509 39,000  Level Houston Center
02:02PM 28.4506 -100.1100 148° Southeast 440 506 39,000  Level Houston Center
02:03PM 28.3469 -100.0361 148° Southeast 438 504 39,000  Level Houston Center
02:04PM 28.2439 -99.9633 148° Southeast 438 504 39,000  Level Houston Center
02:05PM 28.1417 -99.8894 147° Southeast 437 503 39,000 -60 Level Houston Center
02:06PM 28.0206 -99.8011 147° Southeast 434 499 38,900  Descending Houston Center
02:07PM 27.9189 -99.7300 148° Southeast 430 495 39,000  Climbing Houston Center
02:08PM 27.8169 -99.6572 148° Southeast 432 497 39,000  Level Houston Center
02:09PM 27.7131 -99.5858 149° Southeast 439 505 39,000  Level Houston Center
02:10PM 27.6094 -99.5114 148° Southeast 442 509 39,000  Level Houston Center
02:11PM 27.4856 -99.4244 148° Southeast 440 506 39,000  Level Houston Center
02:12PM 27.3953 -99.3278 136° Southeast 457 526 39,000  Level Houston Center
02:13PM 27.3081 -99.2278 134° Southeast 455 524 39,000  Level Houston Center
02:14PM 27.2211 -99.1294 135° Southeast 451 519 39,000  Level Houston Center
02:15PM 27.1186 -99.0128 135° Southeast 444 511 39,000  Level Houston Center
02:16PM 27.0333 -98.9164 135° Southeast 440 506 39,000  Level Houston Center
02:17PM 26.9467 -98.8186 135° Southeast 442 509 39,000  Level Houston Center
02:18PM 26.8586 -98.7211 135° Southeast 446 513 39,000  Level Houston Center
02:19PM 26.7714 -98.6236 135° Southeast 446 513 39,000  Level Houston Center
02:20PM 26.6683 -98.5069 135° Southeast 451 519 39,000  Level Houston Center
02:21PM 26.5742 -98.4050 136° Southeast 438 504 39,000  Level Houston Center
02:22PM 26.4889 -98.3097 135° Southeast 434 499 39,000  Level Houston Center
02:23PM 26.3947 -98.2056 135° Southeast 443 510 39,000  Level Houston Center
02:24PM 26.3069 -98.1092 135° Southeast 444 511 39,000  Level Houston Center
02:25PM 26.2117 -98.0056 136° Southeast 445 512 39,000  Level Houston Center
02:26PM 26.1239 -97.9103 136° Southeast 443 510 39,000  Level Houston Center
02:28PM 26.0308 -97.8108 136° Southeast 435 501 39,000  Level Houston Center
02:29PM 25.9481 -97.7178 135° Southeast 427 491 39,000  Level Houston Center
02:30PM 25.8564 -97.6175 135° Southeast 431 496 39,000  Level Houston Center
02:31PM 25.7697 -97.5217 135° Southeast 439 505 39,000  Level Houston Center
02:33PM 25.6492 -97.3064 122° Southeast  Level FlightAware Approximate
02:40PM 25.2089 -96.4936 120° Southeast  Level FlightAware Approximate
02:41PM 25.1463 -96.3774 121° Southeast  Level FlightAware Approximate
02:42PM 25.0836 -96.2615 121° Southeast  Level FlightAware Approximate
02:43PM 25.0208 -96.1456 121° Southeast  Level FlightAware Approximate
02:44PM 24.9580 -96.0299 121° Southeast  Level FlightAware Approximate
02:45PM 24.8950 -95.9143 121° Southeast  Level FlightAware Approximate
02:46PM 24.8320 -95.7988 121° Southeast  Level FlightAware Approximate
02:47PM 24.7689 -95.6834 121° Southeast  Level FlightAware Approximate
02:48PM 24.7057 -95.5681 121° Southeast  Level FlightAware Approximate
02:49PM 24.6423 -95.4529 121° Southeast  Level FlightAware Approximate
02:50PM 24.5790 -95.3379 121° Southeast  Level FlightAware Approximate
02:51PM 24.5155 -95.2230 121° Southeast  Level FlightAware Approximate
02:52PM 24.4519 -95.1082 121° Southeast  Level FlightAware Approximate
02:53PM 24.3882 -94.9935 121° Southeast  Level FlightAware Approximate
02:54PM 24.3245 -94.8790 121° Southeast  Level FlightAware Approximate
02:55PM 24.2607 -94.7645 121° Southeast  Level FlightAware Approximate
02:56PM 24.1968 -94.6502 121° Southeast  Level FlightAware Approximate
02:57PM 24.1373 -94.5334 113° Southeast  Level FlightAware Approximate
02:58PM 24.0898 -94.4099 113° Southeast  Level FlightAware Approximate
02:59PM 24.0423 -94.2865 113° Southeast  Level FlightAware Approximate
03:00PM 23.9947 -94.1632 113° Southeast  Level FlightAware Approximate
03:01PM 23.9470 -94.0399 113° Southeast  Level FlightAware Approximate
03:02PM 23.8992 -93.9168 113° Southeast  Level FlightAware Approximate
03:03PM 23.8517 -93.7935 112° Southeast  Level FlightAware Approximate
03:04PM 23.8052 -93.6699 112° Southeast  Level FlightAware Approximate
03:05PM 23.7586 -93.5463 112° Southeast  Level FlightAware Approximate
03:06PM 23.7118 -93.4229 112° Southeast  Level FlightAware Approximate
03:07PM 23.6650 -93.2995 112° Southeast  Level FlightAware Approximate
03:08PM 23.6181 -93.1762 113° Southeast  Level FlightAware Approximate
03:09PM 23.5711 -93.0530 113° Southeast  Level FlightAware Approximate
03:10PM 23.5239 -92.9299 113° Southeast  Level FlightAware Approximate
03:11PM 23.4767 -92.8069 113° Southeast  Level FlightAware Approximate
03:12PM 23.4294 -92.6840 113° Southeast  Level FlightAware Approximate
03:13PM 23.3820 -92.5611 113° Southeast  Level FlightAware Approximate
03:14PM 23.3345 -92.4384 113° Southeast  Level FlightAware Approximate
03:15PM 23.2869 -92.3157 113° Southeast  Level FlightAware Approximate
03:16PM 23.2392 -92.1931 113° Southeast  Level FlightAware Approximate
03:17PM 23.1914 -92.0706 113° Southeast  Level FlightAware Approximate
03:18PM 23.1435 -91.9482 113° Southeast  Level FlightAware Approximate
03:19PM 23.0955 -91.8259 113° Southeast  Level FlightAware Approximate
03:20PM 23.0475 -91.7037 113° Southeast  Level FlightAware Approximate
03:21PM 22.9993 -91.5816 113° Southeast  Level FlightAware Approximate
03:22PM 22.9506 -91.4597 113° Southeast  Level FlightAware Approximate
03:23PM 22.9018 -91.3379 113° Southeast  Level FlightAware Approximate
03:24PM 22.8529 -91.2163 114° Southeast  Level FlightAware Approximate
03:25PM 22.8039 -91.0947 114° Southeast  Level FlightAware Approximate
03:26PM 22.7548 -90.9732 114° Southeast  Level FlightAware Approximate
03:27PM 22.7056 -90.8518 114° Southeast  Level FlightAware Approximate
03:28PM 22.6563 -90.7305 114° Southeast  Level FlightAware Approximate
03:29PM 22.6068 -90.6094 114° Southeast  Level FlightAware Approximate
03:30PM 22.5566 -90.4886 114° Southeast  Level FlightAware Approximate
03:31PM 22.5064 -90.3679 114° Southeast  Level FlightAware Approximate
03:32PM 22.4561 -90.2472 114° Southeast  Level FlightAware Approximate
03:33PM 22.4057 -90.1267 114° Southeast  Level FlightAware Approximate
03:34PM 22.3552 -90.0062 114° Southeast  Level FlightAware Approximate
03:35PM 22.3046 -89.8858 114° Southeast  Level FlightAware Approximate
03:36PM 22.2540 -89.7655 114° Southeast  Level FlightAware Approximate
03:37PM 22.2033 -89.6453 114° Southeast  Level FlightAware Approximate
03:38PM 22.1525 -89.5252 114° Southeast  Level FlightAware Approximate
03:39PM 22.1017 -89.4051 115° Southeast  Level FlightAware Approximate
03:40PM 22.0508 -89.2851 115° Southeast  Level FlightAware Approximate
03:41PM 22.0087 -89.1643 114° Southeast  Level FlightAware Approximate
03:42PM 21.9586 -89.0439 114° Southeast  Level FlightAware Approximate
03:43PM 21.9094 -88.9233 113° Southeast  Level FlightAware Approximate
03:44PM 21.8610 -88.8022 113° Southeast  Level FlightAware Approximate
03:45PM 21.8125 -88.6813 113° Southeast  Level FlightAware Approximate
03:46PM 21.7598 -88.5627 110° East  Level FlightAware Approximate
03:47PM 21.7087 -88.4455 112° Southeast  Level FlightAware Approximate
03:48PM 21.6622 -88.3238 117° Southeast  Level FlightAware Approximate
03:49PM 21.6074 -88.2062 117° Southeast  Level FlightAware Approximate
03:50PM 21.5525 -88.0887 117° Southeast  Level FlightAware Approximate
03:51PM 21.5024 -87.9687 114° Southeast  Level FlightAware Approximate
03:52PM 21.4524 -87.8488 114° Southeast  Level FlightAware Approximate
03:53PM 21.4024 -87.7289 114° Southeast  Level FlightAware Approximate
03:54PM 21.3507 -87.6100 113° Southeast  Level FlightAware Approximate
03:55PM 21.3024 -87.4893 113° Southeast  Level FlightAware Approximate
03:56PM 21.2451 -87.3734 118° Southeast  Level FlightAware Approximate
03:57PM 21.1894 -87.2568 113° Southeast  Level FlightAware Approximate
03:58PM 21.1412 -87.1362 113° Southeast  Level FlightAware Approximate
03:59PM 21.0940 -87.0183 113° Southeast  Level FlightAware Approximate
04:00PM 21.0380 -86.9023 123° Southeast  Level FlightAware Approximate
04:01PM 21.0365 -86.8771 123° Southeast  Level Estimated
04:02PM 21.0365 -86.8771 123° Southeast  Level Estimated
04:03PM 21.0365 -86.8771 123° Southeast  Level Estimated
04:04PM 21.0365 -86.8771 123° Southeast  Level Estimated
04:05PM 21.0365 -86.8771 123° Southeast  Level Estimated
04:06PM 21.0365 -86.8771 123° Southeast  Level Estimated
04:07PM 21.0365 -86.8771 123° Southeast  Level Estimated
04:08PM 21.0365 -86.8771 123° Southeast  Level Estimated
04:09PM 21.0365 -86.8771 123° Southeast  Level Estimated
04:10PM 21.0365 -86.8771 123° Southeast  Level Estimated
04:11PM 21.0365 -86.8771 123° Southeast  Level Estimated
04:12PM 21.0365 -86.8771 123° Southeast  Level Estimated
04:13PM 21.0365 -86.8771 123° Southeast  Level Estimated
04:14PM 21.0365 -86.8771 123° Southeast  Level Estimated
04:15PM 21.0365 -86.8771 123° Southeast  Level Estimated
04:16PM 21.0365 -86.8771 123° Southeast  Level Estimated
04:17PM 21.0365 -86.8771 123° Southeast  Level Estimated